^^
Your Local Weather - Clay, NY Station Historical Data
Daily Summary for September 27, 2017 Units:  English    Metric   Both
« Previous Day
Next Day »
Daily Weekly Monthly Yearly Custom
  High: Low: Average:
Temperature: 90.0 °F 62.4 °F 73.6 °F
Dew Point: 72.1 °F 55.1 °F 64.1 °F
Humidity: 95% 41% 75%
Wind Speed: 4.0mph 0.0mph 0.9mph
Wind Gust: 10.0mph - -
Wind- - West
Pressure: 29.88 in 29.72 in -
Precipitation: 0.00 in    
Historical Graphs
 
 
Tabular Data for September 27, 2017
Time Temperature Dew Point Pressure Wind Wind Speed Wind Gust Humidity Rainfall Rate (Hourly) solar
00:04 66.8 °F 64.7 °F 29.88 in Calm     93% 0.00 in 0 W/m2
00:10 66.8 °F 64.7 °F 29.88 in Calm     93% 0.00 in 0 W/m2
00:16 66.8 °F 64.7 °F 29.88 in Calm     93% 0.00 in 0 W/m2
00:22 66.9 °F 64.8 °F 29.88 in Calm     93% 0.00 in 0 W/m2
00:28 66.8 °F 64.7 °F 29.88 in Calm     93% 0.00 in 0 W/m2
00:34 66.7 °F 64.6 °F 29.88 in Calm     93% 0.00 in 0 W/m2
00:40 66.7 °F 64.6 °F 29.88 in Calm     93% 0.00 in 0 W/m2
00:46 66.5 °F 64.4 °F 29.87 in Calm     93% 0.00 in 0 W/m2
00:52 66.3 °F 64.2 °F 29.87 in Calm     93% 0.00 in 0 W/m2
00:58 66.3 °F 64.2 °F 29.86 in Calm     93% 0.00 in 0 W/m2
01:04 66.3 °F 64.5 °F 29.86 in Calm   1.0 mph 94% 0.00 in 0 W/m2
01:10 66.2 °F 64.4 °F 29.86 in Calm     94% 0.00 in 0 W/m2
01:16 66.2 °F 64.4 °F 29.86 in Calm     94% 0.00 in 0 W/m2
01:22 66.2 °F 64.4 °F 29.86 in Calm     94% 0.00 in 0 W/m2
01:28 66.3 °F 64.5 °F 29.86 in Calm     94% 0.00 in 0 W/m2
01:34 66.2 °F 64.4 °F 29.87 in Calm     94% 0.00 in 0 W/m2
01:40 66.2 °F 64.4 °F 29.86 in Calm     94% 0.00 in 0 W/m2
01:46 66.1 °F 64.3 °F 29.87 in Calm     94% 0.00 in 0 W/m2
01:52 66.0 °F 64.2 °F 29.86 in Calm     94% 0.00 in 0 W/m2
01:58 65.7 °F 63.9 °F 29.86 in Calm     94% 0.00 in 0 W/m2
02:04 65.6 °F 63.8 °F 29.86 in Calm     94% 0.00 in 0 W/m2
02:10 65.7 °F 63.9 °F 29.86 in Calm     94% 0.00 in 0 W/m2
02:16 65.8 °F 64.0 °F 29.86 in Calm     94% 0.00 in 0 W/m2
02:22 65.8 °F 64.0 °F 29.86 in Calm     94% 0.00 in 0 W/m2
02:28 65.7 °F 63.9 °F 29.86 in Calm   1.0 mph 94% 0.00 in 0 W/m2
02:34 65.6 °F 63.8 °F 29.86 in Calm     94% 0.00 in 0 W/m2
02:40 65.5 °F 63.7 °F 29.86 in Calm     94% 0.00 in 0 W/m2
02:48 65.6 °F 63.8 °F 29.86 in Calm     94% 0.00 in 0 W/m2
02:54 65.6 °F 63.8 °F 29.86 in Calm     94% 0.00 in 0 W/m2
03:00 65.5 °F 63.7 °F 29.86 in Calm     94% 0.00 in 0 W/m2
03:06 65.4 °F 63.6 °F 29.86 in Calm     94% 0.00 in 0 W/m2
03:12 65.3 °F 63.5 °F 29.86 in Calm     94% 0.00 in 0 W/m2
03:18 65.0 °F 63.2 °F 29.86 in Calm     94% 0.00 in 0 W/m2
03:24 64.9 °F 63.1 °F 29.86 in Calm     94% 0.00 in 0 W/m2
03:30 65.1 °F 63.3 °F 29.86 in Calm     94% 0.00 in 0 W/m2
03:36 65.0 °F 63.2 °F 29.85 in Calm     94% 0.00 in 0 W/m2
03:42 64.9 °F 63.1 °F 29.85 in Calm     94% 0.00 in 0 W/m2
03:48 64.8 °F 63.0 °F 29.85 in Calm     94% 0.00 in 0 W/m2
03:54 64.7 °F 62.9 °F 29.85 in Calm     94% 0.00 in 0 W/m2
04:00 64.7 °F 62.9 °F 29.85 in Calm     94% 0.00 in 0 W/m2
04:06 64.6 °F 62.8 °F 29.85 in Calm     94% 0.00 in 0 W/m2
04:12 64.4 °F 62.6 °F 29.85 in Calm     94% 0.00 in 0 W/m2
04:16 64.3 °F 62.5 °F 29.85 in Calm     94% 0.00 in 0 W/m2
04:22 64.2 °F 62.4 °F 29.85 in Calm     94% 0.00 in 0 W/m2
04:28 64.2 °F 62.4 °F 29.85 in Calm     94% 0.00 in 0 W/m2
04:34 64.1 °F 62.3 °F 29.85 in Calm     94% 0.00 in 0 W/m2
04:40 64.0 °F 62.2 °F 29.85 in Calm     94% 0.00 in 0 W/m2
04:46 64.1 °F 62.3 °F 29.84 in Calm     94% 0.00 in 0 W/m2
04:52 64.0 °F 62.2 °F 29.84 in Calm     94% 0.00 in 0 W/m2
04:58 64.2 °F 62.4 °F 29.84 in Calm     94% 0.00 in 0 W/m2
05:06 64.1 °F 62.3 °F 29.84 in Calm     94% 0.00 in 0 W/m2
05:12 64.1 °F 62.3 °F 29.84 in Calm     94% 0.00 in 0 W/m2
05:18 64.1 °F 62.3 °F 29.85 in Calm     94% 0.00 in 0 W/m2
05:24 64.0 °F 62.2 °F 29.85 in Calm     94% 0.00 in 0 W/m2
05:30 63.8 °F 62.0 °F 29.85 in Calm     94% 0.00 in 0 W/m2
05:36 63.7 °F 61.9 °F 29.85 in Calm     94% 0.00 in 0 W/m2
05:42 63.5 °F 61.7 °F 29.85 in Calm     94% 0.00 in 0 W/m2
05:48 63.4 °F 61.6 °F 29.85 in Calm     94% 0.00 in 0 W/m2
05:54 63.4 °F 61.6 °F 29.85 in Calm     94% 0.00 in 0 W/m2
06:00 63.2 °F 61.7 °F 29.85 in Calm     95% 0.00 in 0 W/m2
06:06 63.1 °F 61.6 °F 29.85 in Calm     95% 0.00 in 0 W/m2
06:12 63.1 °F 61.6 °F 29.84 in Calm     95% 0.00 in 0 W/m2
06:18 63.1 °F 61.6 °F 29.85 in Calm     95% 0.00 in 0 W/m2
06:24 62.9 °F 61.1 °F 29.85 in Calm     94% 0.00 in 0 W/m2
06:30 62.9 °F 61.4 °F 29.85 in Calm     95% 0.00 in 0 W/m2
06:36 63.0 °F 61.5 °F 29.85 in Calm     95% 0.00 in 0 W/m2
06:42 62.9 °F 61.4 °F 29.85 in Calm     95% 0.00 in 0 W/m2
06:48 62.7 °F 61.2 °F 29.85 in Calm     95% 0.00 in 0 W/m2
06:54 62.6 °F 61.1 °F 29.85 in Calm     95% 0.00 in 0 W/m2
07:00 62.5 °F 61.0 °F 29.85 in Calm     95% 0.00 in 5 W/m2
07:06 62.4 °F 60.9 °F 29.85 in Calm     95% 0.00 in 7 W/m2
07:12 62.5 °F 61.0 °F 29.85 in Calm     95% 0.00 in 9 W/m2
07:18 62.5 °F 61.0 °F 29.85 in Calm     95% 0.00 in 12 W/m2
07:24 62.5 °F 61.0 °F 29.85 in Calm     95% 0.00 in 16 W/m2
07:30 62.6 °F 61.1 °F 29.85 in Calm     95% 0.00 in 21 W/m2
07:36 62.6 °F 61.1 °F 29.85 in Calm     95% 0.00 in 25 W/m2
07:40 62.8 °F 61.3 °F 29.85 in Calm     95% 0.00 in 28 W/m2
07:46 62.9 °F 61.4 °F 29.85 in Calm     95% 0.00 in 33 W/m2
07:52 63.0 °F 61.5 °F 29.85 in Calm     95% 0.00 in 35 W/m2
07:58 63.3 °F 61.8 °F 29.85 in Calm     95% 0.00 in 39 W/m2
08:04 63.7 °F 62.2 °F 29.85 in Calm     95% 0.00 in 49 W/m2
08:10 64.1 °F 62.6 °F 29.85 in Calm     95% 0.00 in 107 W/m2
08:16 64.5 °F 63.0 °F 29.85 in Calm     95% 0.00 in 70 W/m2
08:22 64.8 °F 63.3 °F 29.85 in Calm     95% 0.00 in 65 W/m2
08:28 65.4 °F 63.9 °F 29.84 in Calm     95% 0.00 in 72 W/m2
08:34 66.1 °F 64.6 °F 29.84 in Calm   1.0 mph 95% 0.00 in 114 W/m2
08:40 66.8 °F 65.3 °F 29.84 in Calm     95% 0.00 in 62 W/m2
08:46 67.3 °F 65.8 °F 29.84 in Calm     95% 0.00 in 77 W/m2
08:52 67.9 °F 66.4 °F 29.84 in Calm     95% 0.00 in 95 W/m2
08:58 68.3 °F 66.8 °F 29.84 in Calm     95% 0.00 in 95 W/m2
09:04 68.7 °F 67.2 °F 29.84 in Calm     95% 0.00 in 72 W/m2
09:10 69.2 °F 67.7 °F 29.84 in Calm   1.0 mph 95% 0.00 in 69 W/m2
09:16 69.8 °F 68.3 °F 29.84 in South 1.0 mph 1.0 mph 95% 0.00 in 76 W/m2
09:22 70.3 °F 68.8 °F 29.84 in Calm   1.0 mph 95% 0.00 in 81 W/m2
09:28 70.7 °F 68.9 °F 29.84 in Calm     94% 0.00 in 125 W/m2
09:34 71.8 °F 69.3 °F 29.84 in Calm     92% 0.00 in 139 W/m2
09:40 73.6 °F 68.5 °F 29.84 in Calm     84% 0.00 in 111 W/m2
09:46 75.4 °F 68.1 °F 29.83 in South 1.0 mph 1.0 mph 78% 0.00 in 390 W/m2
09:52 76.8 °F 69.0 °F 29.83 in South 1.0 mph 1.0 mph 77% 0.00 in 413 W/m2
09:58 77.7 °F 68.4 °F 29.83 in Calm     73% 0.00 in 438 W/m2
10:04 77.7 °F 68.0 °F 29.83 in Calm     72% 0.00 in 462 W/m2
10:12 78.1 °F 69.1 °F 29.83 in Calm     74% 0.00 in 489 W/m2
10:18 78.5 °F 69.1 °F 29.83 in Calm     73% 0.00 in 504 W/m2
10:24 79.1 °F 68.9 °F 29.83 in Calm     71% 0.00 in 515 W/m2
10:30 80.5 °F 69.4 °F 29.82 in Calm     69% 0.00 in 531 W/m2
10:36 80.6 °F 68.6 °F 29.82 in Calm     67% 0.00 in 541 W/m2
10:42 80.9 °F 69.8 °F 29.82 in Calm     69% 0.00 in 555 W/m2
10:48 80.8 °F 69.2 °F 29.82 in Calm     68% 0.00 in 570 W/m2
10:54 81.3 °F 69.3 °F 29.82 in Calm     67% 0.00 in 582 W/m2
11:00 82.6 °F 69.6 °F 29.82 in Calm   2.0 mph 65% 0.00 in 589 W/m2
11:06 82.6 °F 71.8 °F 29.81 in South 1.0 mph 2.0 mph 70% 0.00 in 601 W/m2
11:12 83.4 °F 68.1 °F 29.81 in Calm     60% 0.00 in 612 W/m2
11:18 83.4 °F 69.0 °F 29.81 in WSW 1.0 mph 2.0 mph 62% 0.00 in 626 W/m2
11:24 83.6 °F 69.7 °F 29.81 in SW 1.0 mph 2.0 mph 63% 0.00 in 628 W/m2
11:30 84.3 °F 69.4 °F 29.81 in WSW 1.0 mph 2.0 mph 61% 0.00 in 638 W/m2
11:36 83.8 °F 68.9 °F 29.81 in South 2.0 mph 3.0 mph 61% 0.00 in 649 W/m2
11:42 84.7 °F 72.1 °F 29.80 in SW 1.0 mph 2.0 mph 66% 0.00 in 654 W/m2
11:48 85.0 °F 70.0 °F 29.80 in WNW 1.0 mph 3.0 mph 61% 0.00 in 661 W/m2
11:54 85.8 °F 68.8 °F 29.80 in Calm   1.0 mph 57% 0.00 in 666 W/m2
12:00 85.4 °F 70.9 °F 29.80 in South 1.0 mph 1.0 mph 62% 0.00 in 682 W/m2
12:06 85.7 °F 70.2 °F 29.80 in NW 1.0 mph 2.0 mph 60% 0.00 in 673 W/m2
12:12 86.1 °F 68.0 °F 29.80 in SW 1.0 mph 4.0 mph 55% 0.00 in 687 W/m2
12:18 86.1 °F 68.0 °F 29.80 in SW 1.0 mph 4.0 mph 55% 0.00 in 686 W/m2
12:24 85.7 °F 67.1 °F 29.80 in SW 2.0 mph 3.0 mph 54% 0.00 in 686 W/m2
12:30 86.2 °F 67.1 °F 29.79 in SSW 3.0 mph 3.0 mph 53% 0.00 in 693 W/m2
12:36 86.2 °F 65.4 °F 29.79 in SW 3.0 mph 5.0 mph 50% 0.00 in 693 W/m2
12:42 86.5 °F 68.4 °F 29.78 in WSW 2.0 mph 2.0 mph 55% 0.00 in 694 W/m2
12:48 87.3 °F 64.6 °F 29.78 in SW 1.0 mph 2.0 mph 47% 0.00 in 700 W/m2
12:54 87.2 °F 65.1 °F 29.78 in WSW 2.0 mph 8.0 mph 48% 0.00 in 700 W/m2
13:00 87.1 °F 66.2 °F 29.78 in SSE 3.0 mph 3.0 mph 50% 0.00 in 694 W/m2
13:06 86.9 °F 64.2 °F 29.78 in SSW 3.0 mph 5.0 mph 47% 0.00 in 691 W/m2
13:12 87.6 °F 65.5 °F 29.78 in SW 4.0 mph 7.0 mph 48% 0.00 in 693 W/m2
13:18 87.6 °F 66.7 °F 29.78 in SW 3.0 mph 7.0 mph 50% 0.00 in 691 W/m2
13:24 87.6 °F 64.3 °F 29.77 in SSW 3.0 mph 6.0 mph 46% 0.00 in 682 W/m2
13:30 87.9 °F 66.4 °F 29.77 in WNW 3.0 mph 3.0 mph 49% 0.00 in 691 W/m2
13:36 88.2 °F 64.2 °F 29.77 in West 2.0 mph 5.0 mph 45% 0.00 in 687 W/m2
13:42 88.6 °F 64.5 °F 29.77 in SW 2.0 mph 6.0 mph 45% 0.00 in 675 W/m2
13:48 88.3 °F 64.9 °F 29.77 in WSW 2.0 mph 6.0 mph 46% 0.00 in 686 W/m2
13:54 88.8 °F 66.0 °F 29.77 in SSW 2.0 mph 4.0 mph 47% 0.00 in 705 W/m2
14:00 88.8 °F 64.1 °F 29.76 in SW 2.0 mph 2.0 mph 44% 0.00 in 675 W/m2
14:06 88.8 °F 64.7 °F 29.76 in South 3.0 mph 5.0 mph 45% 0.00 in 670 W/m2
14:12 88.9 °F 64.2 °F 29.76 in WSW 3.0 mph 3.0 mph 44% 0.00 in 649 W/m2
14:18 89.4 °F 65.9 °F 29.75 in SSW 2.0 mph 3.0 mph 46% 0.00 in 659 W/m2
14:24 89.2 °F 63.8 °F 29.75 in SW 2.0 mph 3.0 mph 43% 0.00 in 663 W/m2
14:30 89.8 °F 65.6 °F 29.75 in SW 2.0 mph 3.0 mph 45% 0.00 in 649 W/m2
14:36 88.7 °F 63.3 °F 29.75 in SSW 1.0 mph 3.0 mph 43% 0.00 in 643 W/m2
14:42 89.4 °F 64.0 °F 29.75 in WSW 1.0 mph 2.0 mph 43% 0.00 in 664 W/m2
14:48 89.3 °F 62.5 °F 29.75 in SW 3.0 mph 10.0 mph 41% 0.00 in 610 W/m2
14:54 88.9 °F 63.5 °F 29.75 in SW 4.0 mph 4.0 mph 43% 0.00 in 622 W/m2
15:00 89.5 °F 66.0 °F 29.74 in WSW 3.0 mph 3.0 mph 46% 0.00 in 613 W/m2
15:06 89.7 °F 63.6 °F 29.74 in SSW 2.0 mph 6.0 mph 42% 0.00 in 596 W/m2
15:12 90.0 °F 63.8 °F 29.74 in West 2.0 mph 9.0 mph 42% 0.00 in 577 W/m2
15:18 89.6 °F 64.8 °F 29.74 in WSW 1.0 mph 9.0 mph 44% 0.00 in 566 W/m2
15:24 89.2 °F 63.1 °F 29.73 in WSW 2.0 mph 7.0 mph 42% 0.00 in 524 W/m2
15:30 88.6 °F 61.9 °F 29.73 in WSW 2.0 mph 4.0 mph 41% 0.00 in 70 W/m2
15:36 87.5 °F 62.2 °F 29.73 in WSW 2.0 mph 4.0 mph 43% 0.00 in 165 W/m2
15:42 87.4 °F 64.7 °F 29.73 in WSW 1.0 mph 3.0 mph 47% 0.00 in 455 W/m2
15:48 87.6 °F 65.5 °F 29.72 in WSW 1.0 mph 3.0 mph 48% 0.00 in 506 W/m2
15:54 88.4 °F 65.0 °F 29.72 in SW 1.0 mph 4.0 mph 46% 0.00 in 482 W/m2
16:00 88.5 °F 63.8 °F 29.72 in NW 3.0 mph 3.0 mph 44% 0.00 in 434 W/m2
16:06 88.6 °F 64.5 °F 29.72 in WSW 2.0 mph 3.0 mph 45% 0.00 in 424 W/m2
16:12 88.2 °F 63.5 °F 29.72 in SW 2.0 mph 3.0 mph 44% 0.00 in 417 W/m2
16:18 88.2 °F 64.2 °F 29.72 in NNW 2.0 mph 4.0 mph 45% 0.00 in 406 W/m2
16:24 88.4 °F 63.1 °F 29.72 in WSW 2.0 mph 3.0 mph 43% 0.00 in 403 W/m2
16:30 88.4 °F 64.4 °F 29.72 in North 3.0 mph 3.0 mph 45% 0.00 in 320 W/m2
16:36 88.2 °F 64.8 °F 29.72 in West 2.0 mph 3.0 mph 46% 0.00 in 380 W/m2
16:42 87.4 °F 65.3 °F 29.72 in NNW 2.0 mph 2.0 mph 48% 0.00 in 151 W/m2
16:48 84.5 °F 66.0 °F 29.72 in NW 3.0 mph 3.0 mph 54% 0.00 in 113 W/m2
16:54 82.7 °F 65.4 °F 29.72 in NNW 3.0 mph 4.0 mph 56% 0.00 in 56 W/m2
17:00 81.7 °F 65.5 °F 29.72 in NW 2.0 mph 2.0 mph 58% 0.00 in 234 W/m2
17:06 81.1 °F 65.9 °F 29.72 in NW 1.0 mph 2.0 mph 60% 0.00 in 123 W/m2
17:12 80.7 °F 66.0 °F 29.72 in NW 1.0 mph 1.0 mph 61% 0.00 in 53 W/m2
17:18 80.2 °F 66.0 °F 29.73 in Calm   1.0 mph 62% 0.00 in 35 W/m2
17:24 80.0 °F 66.3 °F 29.74 in NNW 1.0 mph 7.0 mph 63% 0.00 in 109 W/m2
17:30 80.0 °F 67.2 °F 29.74 in NNW 2.0 mph 2.0 mph 65% 0.00 in 183 W/m2
17:36 80.2 °F 67.8 °F 29.74 in NW 1.0 mph 3.0 mph 66% 0.00 in 199 W/m2
17:42 80.1 °F 67.3 °F 29.74 in NNW 3.0 mph 4.0 mph 65% 0.00 in 100 W/m2
17:48 79.5 °F 67.1 °F 29.74 in NNW 3.0 mph 5.0 mph 66% 0.00 in 132 W/m2
17:54 79.2 °F 66.9 °F 29.73 in NW 2.0 mph 3.0 mph 66% 0.00 in 98 W/m2
18:00 78.9 °F 66.1 °F 29.73 in NW 1.0 mph 1.0 mph 65% 0.00 in 70 W/m2
18:06 78.7 °F 66.4 °F 29.73 in NW 1.0 mph 1.0 mph 66% 0.00 in 49 W/m2
18:12 78.4 °F 66.1 °F 29.74 in Calm     66% 0.00 in 40 W/m2
18:18 78.2 °F 66.3 °F 29.74 in Calm     67% 0.00 in 32 W/m2
18:24 77.9 °F 66.1 °F 29.73 in Calm   1.0 mph 67% 0.00 in 21 W/m2
18:30 77.5 °F 65.2 °F 29.74 in Calm     66% 0.00 in 12 W/m2
18:36 77.4 °F 65.1 °F 29.74 in Calm     66% 0.00 in 7 W/m2
18:42 77.1 °F 64.9 °F 29.74 in Calm     66% 0.00 in 5 W/m2
18:48 76.8 °F 65.0 °F 29.74 in Calm     67% 0.00 in 0 W/m2
18:54 76.4 °F 65.1 °F 29.74 in Calm     68% 0.00 in 0 W/m2
19:00 75.7 °F 64.8 °F 29.75 in Calm     69% 0.00 in 0 W/m2
19:06 75.2 °F 64.7 °F 29.75 in Calm     70% 0.00 in 0 W/m2
19:12 74.8 °F 64.8 °F 29.75 in Calm     71% 0.00 in 0 W/m2
19:18 74.6 °F 64.6 °F 29.75 in Calm     71% 0.00 in 0 W/m2
19:24 74.6 °F 65.0 °F 29.75 in Calm     72% 0.00 in 0 W/m2
19:30 74.4 °F 64.8 °F 29.75 in Calm     72% 0.00 in 0 W/m2
19:36 74.4 °F 64.8 °F 29.76 in NW 1.0 mph 3.0 mph 72% 0.00 in 0 W/m2
19:42 74.6 °F 65.4 °F 29.76 in North 2.0 mph 2.0 mph 73% 0.00 in 0 W/m2
19:48 74.5 °F 65.7 °F 29.76 in NNW 1.0 mph 2.0 mph 74% 0.00 in 0 W/m2
19:54 74.4 °F 66.0 °F 29.77 in North 2.0 mph 2.0 mph 75% 0.00 in 0 W/m2
20:00 74.1 °F 66.0 °F 29.77 in West 2.0 mph 2.0 mph 76% 0.00 in 0 W/m2
20:06 74.0 °F 66.3 °F 29.77 in NNW 2.0 mph 2.0 mph 77% 0.00 in 0 W/m2
20:12 73.7 °F 66.0 °F 29.77 in West 2.0 mph 2.0 mph 77% 0.00 in 0 W/m2
20:18 73.4 °F 66.1 °F 29.78 in NW 1.0 mph 2.0 mph 78% 0.00 in 0 W/m2
20:24 73.3 °F 66.4 °F 29.78 in NNW 1.0 mph 1.0 mph 79% 0.00 in 0 W/m2
20:30 73.0 °F 66.5 °F 29.78 in WNW 2.0 mph 2.0 mph 80% 0.00 in 0 W/m2
20:36 72.8 °F 66.3 °F 29.78 in NW 2.0 mph 2.0 mph 80% 0.00 in 0 W/m2
20:42 72.5 °F 66.0 °F 29.79 in NNW 2.0 mph 5.0 mph 80% 0.00 in 0 W/m2
20:48 72.3 °F 65.8 °F 29.79 in NW 2.0 mph 5.0 mph 80% 0.00 in 0 W/m2
20:54 72.1 °F 65.6 °F 29.80 in NW 2.0 mph 3.0 mph 80% 0.00 in 0 W/m2
21:00 71.6 °F 64.7 °F 29.80 in NW 2.0 mph 4.0 mph 79% 0.00 in 0 W/m2
21:06 71.2 °F 64.0 °F 29.80 in NW 3.0 mph 4.0 mph 78% 0.00 in 0 W/m2
21:12 70.8 °F 62.1 °F 29.80 in NW 2.0 mph 3.0 mph 74% 0.00 in 0 W/m2
21:18 70.5 °F 62.2 °F 29.80 in WNW 2.0 mph 3.0 mph 75% 0.00 in 0 W/m2
21:24 70.2 °F 62.3 °F 29.80 in NNW 2.0 mph 3.0 mph 76% 0.00 in 0 W/m2
21:30 70.0 °F 62.1 °F 29.81 in NW 1.0 mph 1.0 mph 76% 0.00 in 0 W/m2
21:36 69.9 °F 62.4 °F 29.81 in WNW 1.0 mph 2.0 mph 77% 0.00 in 0 W/m2
21:42 69.7 °F 62.5 °F 29.81 in WNW 1.0 mph 2.0 mph 78% 0.00 in 0 W/m2
21:48 69.4 °F 61.5 °F 29.81 in NNW 2.0 mph 3.0 mph 76% 0.00 in 0 W/m2
21:54 69.1 °F 59.7 °F 29.81 in NNW 3.0 mph 4.0 mph 72% 0.00 in 0 W/m2
22:00 68.8 °F 58.2 °F 29.81 in NW 3.0 mph 4.0 mph 69% 0.00 in 0 W/m2
22:06 68.7 °F 57.7 °F 29.81 in NW 4.0 mph 4.0 mph 68% 0.00 in 0 W/m2
22:12 68.6 °F 58.0 °F 29.82 in NW 3.0 mph 3.0 mph 69% 0.00 in 0 W/m2
22:18 68.4 °F 57.8 °F 29.82 in WSW 2.0 mph 3.0 mph 69% 0.00 in 0 W/m2
22:24 68.3 °F 58.1 °F 29.83 in WNW 2.0 mph 2.0 mph 70% 0.00 in 0 W/m2
22:30 68.2 °F 58.4 °F 29.82 in NNW 1.0 mph 2.0 mph 71% 0.00 in 0 W/m2
22:36 68.0 °F 58.2 °F 29.83 in NNW 1.0 mph 2.0 mph 71% 0.00 in 0 W/m2
22:42 67.9 °F 58.1 °F 29.83 in NNW 1.0 mph 2.0 mph 71% 0.00 in 0 W/m2
22:48 67.6 °F 57.9 °F 29.83 in NW 1.0 mph 3.0 mph 71% 0.00 in 0 W/m2
22:54 67.4 °F 57.7 °F 29.83 in NW 1.0 mph 3.0 mph 71% 0.00 in 0 W/m2
23:00 67.0 °F 56.9 °F 29.84 in NW 1.0 mph 4.0 mph 70% 0.00 in 0 W/m2
23:06 66.7 °F 56.6 °F 29.83 in NW 1.0 mph 4.0 mph 70% 0.00 in 0 W/m2
23:12 66.3 °F 55.8 °F 29.84 in North 1.0 mph 1.0 mph 69% 0.00 in 0 W/m2
23:18 66.0 °F 55.5 °F 29.84 in NNW 1.0 mph 5.0 mph 69% 0.00 in 0 W/m2
23:24 65.8 °F 55.3 °F 29.84 in NW 2.0 mph 2.0 mph 69% 0.00 in 0 W/m2
23:30 65.6 °F 55.5 °F 29.84 in NW 1.0 mph 4.0 mph 70% 0.00 in 0 W/m2
23:36 65.4 °F 55.7 °F 29.84 in NW 1.0 mph 4.0 mph 71% 0.00 in 0 W/m2
23:42 65.1 °F 55.5 °F 29.84 in NNW 1.0 mph 3.0 mph 71% 0.00 in 0 W/m2
23:48 64.9 °F 55.3 °F 29.85 in NNW 1.0 mph 3.0 mph 71% 0.00 in 0 W/m2
23:54 64.7 °F 55.1 °F 29.84 in North 1.0 mph 4.0 mph 71% 0.00 in 0 W/m2
Country Meadow, Clay, NY, USA
Compliments of Weather Underground - 2 mb